sensor_id;sensor_type;location;lat;lon;timestamp;pressure;altitude;pressure_sealevel;temperature;humidity
57827;BME280;43656;57.746;11.780;2023-09-30T00:00:42;101014.28;;;17.79;99.36
57827;BME280;43656;57.746;11.780;2023-09-30T00:03:08;101015.22;;;17.73;100.00
57827;BME280;43656;57.746;11.780;2023-09-30T00:05:35;100991.69;;;17.67;99.61
57827;BME280;43656;57.746;11.780;2023-09-30T00:08:00;101022.56;;;17.73;99.95
57827;BME280;43656;57.746;11.780;2023-09-30T00:10:25;101020.06;;;17.71;99.75
57827;BME280;43656;57.746;11.780;2023-09-30T00:12:51;101011.06;;;17.71;99.47
57827;BME280;43656;57.746;11.780;2023-09-30T00:15:16;101013.31;;;17.74;99.14
57827;BME280;43656;57.746;11.780;2023-09-30T00:17:42;101010.38;;;17.64;99.32
57827;BME280;43656;57.746;11.780;2023-09-30T00:20:08;101014.41;;;17.61;98.99
57827;BME280;43656;57.746;11.780;2023-09-30T00:22:33;101029.22;;;17.65;99.34
57827;BME280;43656;57.746;11.780;2023-09-30T00:24:59;101012.31;;;17.51;98.84
57827;BME280;43656;57.746;11.780;2023-09-30T00:27:24;101034.53;;;17.60;98.91
57827;BME280;43656;57.746;11.780;2023-09-30T00:29:50;101045.88;;;17.69;97.87
57827;BME280;43656;57.746;11.780;2023-09-30T00:32:15;101046.09;;;17.67;97.78
57827;BME280;43656;57.746;11.780;2023-09-30T00:34:40;101043.78;;;17.59;98.25
57827;BME280;43656;57.746;11.780;2023-09-30T00:37:06;101044.34;;;17.61;97.83
57827;BME280;43656;57.746;11.780;2023-09-30T00:39:32;101038.63;;;17.74;97.28
57827;BME280;43656;57.746;11.780;2023-09-30T00:41:58;101039.50;;;17.63;98.24
57827;BME280;43656;57.746;11.780;2023-09-30T00:44:25;101033.56;;;17.78;97.03
57827;BME280;43656;57.746;11.780;2023-09-30T00:46:51;101043.03;;;17.75;96.97
57827;BME280;43656;57.746;11.780;2023-09-30T00:49:17;101034.41;;;17.78;96.86
57827;BME280;43656;57.746;11.780;2023-09-30T00:51:44;101032.59;;;17.84;96.79
57827;BME280;43656;57.746;11.780;2023-09-30T00:54:11;101036.25;;;17.90;96.53
57827;BME280;43656;57.746;11.780;2023-09-30T00:56:43;101021.81;;;17.89;96.76
57827;BME280;43656;57.746;11.780;2023-09-30T00:59:09;101023.53;;;17.78;97.76
57827;BME280;43656;57.746;11.780;2023-09-30T01:01:35;101023.88;;;17.82;97.68
57827;BME280;43656;57.746;11.780;2023-09-30T01:04:01;101015.38;;;17.78;98.14
57827;BME280;43656;57.746;11.780;2023-09-30T01:06:27;101029.78;;;17.79;98.15
57827;BME280;43656;57.746;11.780;2023-09-30T01:08:54;101025.25;;;17.84;97.87
57827;BME280;43656;57.746;11.780;2023-09-30T01:11:20;101025.03;;;17.86;97.86
57827;BME280;43656;57.746;11.780;2023-09-30T01:13:46;101016.84;;;17.74;98.38
57827;BME280;43656;57.746;11.780;2023-09-30T01:16:12;101037.13;;;17.78;98.65
57827;BME280;43656;57.746;11.780;2023-09-30T01:18:39;101022.31;;;17.74;98.38
57827;BME280;43656;57.746;11.780;2023-09-30T01:21:06;101019.84;;;17.73;98.34
57827;BME280;43656;57.746;11.780;2023-09-30T01:23:32;101028.50;;;17.81;97.62
57827;BME280;43656;57.746;11.780;2023-09-30T01:26:07;101027.75;;;17.86;97.65
57827;BME280;43656;57.746;11.780;2023-09-30T01:28:34;101025.88;;;17.75;98.38
57827;BME280;43656;57.746;11.780;2023-09-30T01:30:59;101024.78;;;17.76;98.24
57827;BME280;43656;57.746;11.780;2023-09-30T01:33:25;101026.69;;;17.75;98.11
57827;BME280;43656;57.746;11.780;2023-09-30T01:35:50;101024.47;;;17.72;98.17
57827;BME280;43656;57.746;11.780;2023-09-30T01:38:16;101004.50;;;17.55;98.42
57827;BME280;43656;57.746;11.780;2023-09-30T01:40:41;101031.47;;;17.68;98.71
57827;BME280;43656;57.746;11.780;2023-09-30T01:43:08;101013.25;;;17.57;99.22
57827;BME280;43656;57.746;11.780;2023-09-30T01:45:33;101025.41;;;17.66;99.02
57827;BME280;43656;57.746;11.780;2023-09-30T01:48:00;101029.31;;;17.70;98.83
57827;BME280;43656;57.746;11.780;2023-09-30T01:50:26;101016.78;;;17.69;98.58
57827;BME280;43656;57.746;11.780;2023-09-30T01:52:51;101026.56;;;17.70;98.96
57827;BME280;43656;57.746;11.780;2023-09-30T01:55:16;101033.47;;;17.61;99.28
57827;BME280;43656;57.746;11.780;2023-09-30T01:57:42;101036.56;;;17.53;100.00
57827;BME280;43656;57.746;11.780;2023-09-30T02:00:07;101028.16;;;17.54;100.00
57827;BME280;43656;57.746;11.780;2023-09-30T02:02:35;101027.44;;;17.59;99.71
57827;BME280;43656;57.746;11.780;2023-09-30T02:05:02;101036.91;;;17.56;99.94
57827;BME280;43656;57.746;11.780;2023-09-30T02:07:28;101032.78;;;17.54;99.73
57827;BME280;43656;57.746;11.780;2023-09-30T02:09:54;101043.78;;;17.59;99.64
57827;BME280;43656;57.746;11.780;2023-09-30T02:12:19;101027.31;;;17.54;99.95
57827;BME280;43656;57.746;11.780;2023-09-30T02:14:45;101031.81;;;17.60;99.75
57827;BME280;43656;57.746;11.780;2023-09-30T02:17:11;101050.84;;;17.60;99.98
57827;BME280;43656;57.746;11.780;2023-09-30T02:19:36;101033.25;;;17.51;100.00
57827;BME280;43656;57.746;11.780;2023-09-30T02:22:02;101040.00;;;17.48;100.00
57827;BME280;43656;57.746;11.780;2023-09-30T02:24:27;101049.09;;;17.54;100.00
57827;BME280;43656;57.746;11.780;2023-09-30T02:26:53;101057.63;;;17.46;100.00
57827;BME280;43656;57.746;11.780;2023-09-30T02:29:18;101057.16;;;17.49;100.00
57827;BME280;43656;57.746;11.780;2023-09-30T02:31:45;101046.53;;;17.35;100.00
57827;BME280;43656;57.746;11.780;2023-09-30T02:34:10;101064.59;;;17.53;100.00
57827;BME280;43656;57.746;11.780;2023-09-30T02:36:35;101046.84;;;17.51;100.00
57827;BME280;43656;57.746;11.780;2023-09-30T02:39:05;101052.06;;;17.52;100.00
57827;BME280;43656;57.746;11.780;2023-09-30T02:41:30;101065.41;;;17.54;100.00
57827;BME280;43656;57.746;11.780;2023-09-30T02:43:55;101050.66;;;17.38;100.00
57827;BME280;43656;57.746;11.780;2023-09-30T02:46:21;101067.91;;;17.55;100.00
57827;BME280;43656;57.746;11.780;2023-09-30T02:48:46;101058.34;;;17.41;100.00
57827;BME280;43656;57.746;11.780;2023-09-30T02:51:11;101062.13;;;17.40;100.00
57827;BME280;43656;57.746;11.780;2023-09-30T02:53:37;101059.28;;;17.47;100.00
57827;BME280;43656;57.746;11.780;2023-09-30T02:56:03;101036.59;;;17.29;100.00
57827;BME280;43656;57.746;11.780;2023-09-30T02:58:30;101064.72;;;17.47;100.00
57827;BME280;43656;57.746;11.780;2023-09-30T03:00:55;101059.41;;;17.52;100.00
57827;BME280;43656;57.746;11.780;2023-09-30T03:03:21;101066.59;;;17.58;100.00
57827;BME280;43656;57.746;11.780;2023-09-30T03:05:47;101055.97;;;17.45;100.00
57827;BME280;43656;57.746;11.780;2023-09-30T03:08:14;101062.00;;;17.58;100.00
57827;BME280;43656;57.746;11.780;2023-09-30T03:10:40;101063.03;;;17.57;100.00
57827;BME280;43656;57.746;11.780;2023-09-30T03:13:06;101066.03;;;17.56;100.00
57827;BME280;43656;57.746;11.780;2023-09-30T03:15:33;101071.69;;;17.54;100.00
57827;BME280;43656;57.746;11.780;2023-09-30T03:17:58;101070.38;;;17.69;100.00
57827;BME280;43656;57.746;11.780;2023-09-30T03:20:25;101059.38;;;17.64;100.00
57827;BME280;43656;57.746;11.780;2023-09-30T03:22:51;101063.88;;;17.58;100.00
57827;BME280;43656;57.746;11.780;2023-09-30T03:25:18;101079.03;;;17.66;100.00
57827;BME280;43656;57.746;11.780;2023-09-30T03:27:47;101077.97;;;17.55;100.00
57827;BME280;43656;57.746;11.780;2023-09-30T03:30:14;101047.72;;;17.16;100.00
57827;BME280;43656;57.746;11.780;2023-09-30T03:32:40;101072.53;;;17.43;99.63
57827;BME280;43656;57.746;11.780;2023-09-30T03:35:08;101076.56;;;17.52;98.68
57827;BME280;43656;57.746;11.780;2023-09-30T03:37:36;101070.97;;;17.59;98.69
57827;BME280;43656;57.746;11.780;2023-09-30T03:40:02;101063.28;;;17.56;99.72
57827;BME280;43656;57.746;11.780;2023-09-30T03:42:39;101047.44;;;17.41;100.00
57827;BME280;43656;57.746;11.780;2023-09-30T03:45:05;101060.69;;;17.49;100.00
57827;BME280;43656;57.746;11.780;2023-09-30T03:47:35;101059.75;;;17.44;100.00
57827;BME280;43656;57.746;11.780;2023-09-30T03:50:01;101063.16;;;17.51;100.00
57827;BME280;43656;57.746;11.780;2023-09-30T03:52:28;101056.34;;;17.48;100.00
57827;BME280;43656;57.746;11.780;2023-09-30T03:54:53;101050.53;;;17.45;100.00
57827;BME280;43656;57.746;11.780;2023-09-30T03:57:19;101048.88;;;17.44;100.00
57827;BME280;43656;57.746;11.780;2023-09-30T03:59:44;101049.94;;;17.43;100.00
57827;BME280;43656;57.746;11.780;2023-09-30T04:02:11;101049.69;;;17.44;100.00
57827;BME280;43656;57.746;11.780;2023-09-30T04:04:36;101035.19;;;17.38;100.00
57827;BME280;43656;57.746;11.780;2023-09-30T04:07:02;101041.44;;;17.39;100.00
57827;BME280;43656;57.746;11.780;2023-09-30T04:09:31;101036.81;;;17.40;100.00
57827;BME280;43656;57.746;11.780;2023-09-30T04:11:57;101024.53;;;17.37;100.00
57827;BME280;43656;57.746;11.780;2023-09-30T04:14:22;101029.75;;;17.38;100.00
57827;BME280;43656;57.746;11.780;2023-09-30T04:16:48;101033.38;;;17.44;100.00
57827;BME280;43656;57.746;11.780;2023-09-30T04:19:13;101040.00;;;17.48;100.00
57827;BME280;43656;57.746;11.780;2023-09-30T04:21:39;101015.88;;;17.40;100.00
57827;BME280;43656;57.746;11.780;2023-09-30T04:24:05;101017.31;;;17.43;100.00
57827;BME280;43656;57.746;11.780;2023-09-30T04:26:32;101022.50;;;17.44;100.00
57827;BME280;43656;57.746;11.780;2023-09-30T04:28:58;101035.97;;;17.51;100.00
57827;BME280;43656;57.746;11.780;2023-09-30T04:31:42;101028.88;;;17.50;100.00
57827;BME280;43656;57.746;11.780;2023-09-30T04:34:07;101020.03;;;17.43;100.00
57827;BME280;43656;57.746;11.780;2023-09-30T04:36:33;101036.09;;;17.56;100.00
57827;BME280;43656;57.746;11.780;2023-09-30T04:39:01;101020.72;;;17.50;100.00
57827;BME280;43656;57.746;11.780;2023-09-30T04:41:28;101019.06;;;17.49;100.00
57827;BME280;43656;57.746;11.780;2023-09-30T04:43:53;101029.44;;;17.64;100.00
57827;BME280;43656;57.746;11.780;2023-09-30T04:46:18;101040.22;;;17.58;100.00
57827;BME280;43656;57.746;11.780;2023-09-30T04:48:45;101044.94;;;17.63;100.00
57827;BME280;43656;57.746;11.780;2023-09-30T04:51:13;101046.25;;;17.60;100.00
57827;BME280;43656;57.746;11.780;2023-09-30T04:53:38;101046.25;;;17.60;100.00
57827;BME280;43656;57.746;11.780;2023-09-30T04:56:04;101053.50;;;17.55;100.00
57827;BME280;43656;57.746;11.780;2023-09-30T04:58:29;101049.72;;;17.32;100.00
57827;BME280;43656;57.746;11.780;2023-09-30T05:00:55;101055.38;;;17.31;100.00
57827;BME280;43656;57.746;11.780;2023-09-30T05:03:20;101055.75;;;17.11;100.00
57827;BME280;43656;57.746;11.780;2023-09-30T05:05:45;101058.00;;;17.02;100.00
57827;BME280;43656;57.746;11.780;2023-09-30T05:08:11;101041.06;;;16.88;100.00
57827;BME280;43656;57.746;11.780;2023-09-30T05:10:39;101050.66;;;16.91;100.00
57827;BME280;43656;57.746;11.780;2023-09-30T05:13:04;101064.03;;;17.04;100.00
57827;BME280;43656;57.746;11.780;2023-09-30T05:15:31;101065.56;;;17.00;100.00
57827;BME280;43656;57.746;11.780;2023-09-30T05:17:58;101059.78;;;16.97;99.83
57827;BME280;43656;57.746;11.780;2023-09-30T05:20:23;101074.31;;;17.02;98.13
57827;BME280;43656;57.746;11.780;2023-09-30T05:22:49;101079.88;;;17.19;96.82
57827;BME280;43656;57.746;11.780;2023-09-30T05:25:16;101083.06;;;17.16;96.10
57827;BME280;43656;57.746;11.780;2023-09-30T05:27:42;101079.41;;;17.22;95.28
57827;BME280;43656;57.746;11.780;2023-09-30T05:30:08;101077.75;;;17.33;94.61
57827;BME280;43656;57.746;11.780;2023-09-30T05:32:33;101075.97;;;17.27;94.52
57827;BME280;43656;57.746;11.780;2023-09-30T05:35:03;101080.69;;;17.31;92.37
57827;BME280;43656;57.746;11.780;2023-09-30T05:37:30;101083.28;;;17.38;91.80
57827;BME280;43656;57.746;11.780;2023-09-30T05:39:56;101087.09;;;17.25;91.76
57827;BME280;43656;57.746;11.780;2023-09-30T05:42:21;101084.25;;;17.44;90.19
57827;BME280;43656;57.746;11.780;2023-09-30T05:44:47;101092.75;;;17.47;89.16
57827;BME280;43656;57.746;11.780;2023-09-30T05:47:13;101091.81;;;17.30;88.70
57827;BME280;43656;57.746;11.780;2023-09-30T05:49:40;101093.13;;;17.27;87.41
57827;BME280;43656;57.746;11.780;2023-09-30T05:52:06;101091.81;;;17.30;86.24
57827;BME280;43656;57.746;11.780;2023-09-30T05:54:32;101089.31;;;17.28;84.99
57827;BME280;43656;57.746;11.780;2023-09-30T05:56:58;101084.50;;;17.42;83.96
57827;BME280;43656;57.746;11.780;2023-09-30T05:59:25;101088.72;;;17.50;83.29
57827;BME280;43656;57.746;11.780;2023-09-30T06:01:51;101091.81;;;17.53;83.71
57827;BME280;43656;57.746;11.780;2023-09-30T06:04:16;101095.00;;;17.50;86.07
57827;BME280;43656;57.746;11.780;2023-09-30T06:06:42;101097.47;;;17.28;87.26
57827;BME280;43656;57.746;11.780;2023-09-30T06:09:08;101077.41;;;17.06;87.45
57827;BME280;43656;57.746;11.780;2023-09-30T06:11:33;101088.84;;;17.08;87.58
57827;BME280;43656;57.746;11.780;2023-09-30T06:14:01;101101.63;;;17.19;88.63
57827;BME280;43656;57.746;11.780;2023-09-30T06:16:27;101102.94;;;17.17;89.15
57827;BME280;43656;57.746;11.780;2023-09-30T06:18:53;101098.44;;;17.22;89.30
57827;BME280;43656;57.746;11.780;2023-09-30T06:21:20;101093.72;;;17.29;88.96
57827;BME280;43656;57.746;11.780;2023-09-30T06:23:47;101106.94;;;17.37;88.10
57827;BME280;43656;57.746;11.780;2023-09-30T06:26:14;101106.03;;;17.32;87.85
57827;BME280;43656;57.746;11.780;2023-09-30T06:28:40;101113.00;;;17.40;87.85
57827;BME280;43656;57.746;11.780;2023-09-30T06:31:09;101094.41;;;17.36;88.31
57827;BME280;43656;57.746;11.780;2023-09-30T06:33:37;101112.38;;;17.61;87.76
57827;BME280;43656;57.746;11.780;2023-09-30T06:36:11;101102.22;;;17.56;86.98
57827;BME280;43656;57.746;11.780;2023-09-30T06:38:39;101111.78;;;17.71;84.78
57827;BME280;43656;57.746;11.780;2023-09-30T06:41:04;101121.00;;;17.58;85.75
57827;BME280;43656;57.746;11.780;2023-09-30T06:43:30;101139.22;;;17.34;87.75
57827;BME280;43656;57.746;11.780;2023-09-30T06:45:56;101137.88;;;17.01;91.77
57827;BME280;43656;57.746;11.780;2023-09-30T06:48:22;101147.69;;;16.90;94.64
57827;BME280;43656;57.746;11.780;2023-09-30T06:50:49;101108.19;;;16.76;95.81
57827;BME280;43656;57.746;11.780;2023-09-30T06:53:15;101137.63;;;16.79;97.40
57827;BME280;43656;57.746;11.780;2023-09-30T06:55:44;101136.88;;;16.72;97.59
57827;BME280;43656;57.746;11.780;2023-09-30T06:58:10;101143.28;;;16.78;99.23
57827;BME280;43656;57.746;11.780;2023-09-30T07:00:36;101137.16;;;16.82;99.89
57827;BME280;43656;57.746;11.780;2023-09-30T07:03:03;101124.63;;;16.81;99.51
57827;BME280;43656;57.746;11.780;2023-09-30T07:05:29;101152.69;;;17.05;98.48
57827;BME280;43656;57.746;11.780;2023-09-30T07:07:55;101151.00;;;16.93;98.85
57827;BME280;43656;57.746;11.780;2023-09-30T07:10:20;101161.44;;;16.96;99.19
57827;BME280;43656;57.746;11.780;2023-09-30T07:12:46;101146.75;;;16.97;99.03
57827;BME280;43656;57.746;11.780;2023-09-30T07:15:11;101155.78;;;17.09;97.89
57827;BME280;43656;57.746;11.780;2023-09-30T07:17:39;101147.13;;;17.00;95.97
57827;BME280;43656;57.746;11.780;2023-09-30T07:20:05;101116.53;;;17.17;93.50
57827;BME280;43656;57.746;11.780;2023-09-30T07:22:31;101140.91;;;17.47;92.30
57827;BME280;43656;57.746;11.780;2023-09-30T07:24:57;101131.06;;;17.34;92.39
57827;BME280;43656;57.746;11.780;2023-09-30T07:27:23;101127.31;;;17.58;90.85
57827;BME280;43656;57.746;11.780;2023-09-30T07:29:49;101130.13;;;17.64;89.94
57827;BME280;43656;57.746;11.780;2023-09-30T07:32:14;101137.84;;;17.78;89.56
57827;BME280;43656;57.746;11.780;2023-09-30T07:34:40;101150.22;;;17.74;88.79
57827;BME280;43656;57.746;11.780;2023-09-30T07:37:06;101154.19;;;17.78;88.46
57827;BME280;43656;57.746;11.780;2023-09-30T07:39:32;101140.41;;;17.73;87.37
57827;BME280;43656;57.746;11.780;2023-09-30T07:41:58;101157.28;;;18.11;86.20
57827;BME280;43656;57.746;11.780;2023-09-30T07:44:23;101162.91;;;17.92;86.47
57827;BME280;43656;57.746;11.780;2023-09-30T07:46:48;101160.53;;;17.96;85.57
57827;BME280;43656;57.746;11.780;2023-09-30T07:49:14;101152.66;;;18.11;84.76
57827;BME280;43656;57.746;11.780;2023-09-30T07:51:40;101134.06;;;17.79;85.15
57827;BME280;43656;57.746;11.780;2023-09-30T07:54:05;101154.13;;;18.02;84.07
57827;BME280;43656;57.746;11.780;2023-09-30T07:56:31;101172.59;;;18.12;85.27
57827;BME280;43656;57.746;11.780;2023-09-30T07:58:57;101164.28;;;18.06;85.99
57827;BME280;43656;57.746;11.780;2023-09-30T08:01:22;101160.53;;;17.96;86.84
57827;BME280;43656;57.746;11.780;2023-09-30T08:03:47;101157.56;;;17.97;86.41
57827;BME280;43656;57.746;11.780;2023-09-30T08:06:13;101166.34;;;17.99;86.14
57827;BME280;43656;57.746;11.780;2023-09-30T08:08:39;101165.44;;;18.22;84.89
57827;BME280;43656;57.746;11.780;2023-09-30T08:11:05;101182.38;;;18.24;83.82
57827;BME280;43656;57.746;11.780;2023-09-30T08:13:31;101178.59;;;18.25;80.38
57827;BME280;43656;57.746;11.780;2023-09-30T08:15:57;101159.09;;;18.05;79.54
57827;BME280;43656;57.746;11.780;2023-09-30T08:18:23;101179.91;;;18.11;79.03
57827;BME280;43656;57.746;11.780;2023-09-30T08:20:48;101188.75;;;18.30;79.13
57827;BME280;43656;57.746;11.780;2023-09-30T08:23:14;101178.13;;;18.57;78.72
57827;BME280;43656;57.746;11.780;2023-09-30T08:25:40;101185.94;;;18.53;78.49
57827;BME280;43656;57.746;11.780;2023-09-30T08:28:05;101177.09;;;18.46;78.69
57827;BME280;43656;57.746;11.780;2023-09-30T08:30:33;101154.75;;;18.33;78.54
57827;BME280;43656;57.746;11.780;2023-09-30T08:32:58;101167.44;;;18.27;78.62
57827;BME280;43656;57.746;11.780;2023-09-30T08:35:24;101158.41;;;18.38;77.48
57827;BME280;43656;57.746;11.780;2023-09-30T08:37:50;101167.66;;;18.66;76.78
57827;BME280;43656;57.746;11.780;2023-09-30T08:40:20;101187.97;;;18.58;77.79
57827;BME280;43656;57.746;11.780;2023-09-30T08:42:51;101185.53;;;18.45;78.50
57827;BME280;43656;57.746;11.780;2023-09-30T08:45:17;101196.78;;;18.48;78.24
57827;BME280;43656;57.746;11.780;2023-09-30T08:47:43;101204.59;;;18.45;78.47
57827;BME280;43656;57.746;11.780;2023-09-30T08:50:09;101226.59;;;18.55;78.95
57827;BME280;43656;57.746;11.780;2023-09-30T08:52:37;101227.44;;;18.44;79.71
57827;BME280;43656;57.746;11.780;2023-09-30T08:55:03;101209.44;;;18.43;80.56
57827;BME280;43656;57.746;11.780;2023-09-30T08:57:29;101225.63;;;18.61;79.22
57827;BME280;43656;57.746;11.780;2023-09-30T08:59:57;101230.91;;;18.80;78.57
57827;BME280;43656;57.746;11.780;2023-09-30T09:02:22;101223.63;;;18.57;77.28
57827;BME280;43656;57.746;11.780;2023-09-30T09:04:48;101216.19;;;18.52;77.80
57827;BME280;43656;57.746;11.780;2023-09-30T09:07:15;101222.34;;;18.47;78.71
57827;BME280;43656;57.746;11.780;2023-09-30T09:09:40;101223.81;;;18.38;79.89
57827;BME280;43656;57.746;11.780;2023-09-30T09:12:06;101229.22;;;18.50;80.45
57827;BME280;43656;57.746;11.780;2023-09-30T09:14:42;101228.03;;;18.58;81.10
57827;BME280;43656;57.746;11.780;2023-09-30T09:17:11;101220.41;;;18.60;81.72
57827;BME280;43656;57.746;11.780;2023-09-30T09:19:37;101217.34;;;18.56;82.33
57827;BME280;43656;57.746;11.780;2023-09-30T09:22:03;101230.75;;;18.58;83.07
57827;BME280;43656;57.746;11.780;2023-09-30T09:24:33;101222.72;;;18.51;84.66
57827;BME280;43656;57.746;11.780;2023-09-30T09:27:07;101230.84;;;18.63;84.68
57827;BME280;43656;57.746;11.780;2023-09-30T09:29:34;101223.88;;;18.55;85.01
57827;BME280;43656;57.746;11.780;2023-09-30T09:32:13;101235.75;;;18.49;84.72
57827;BME280;43656;57.746;11.780;2023-09-30T09:34:40;101228.66;;;18.48;82.91
57827;BME280;43656;57.746;11.780;2023-09-30T09:37:17;101240.09;;;18.62;81.46
57827;BME280;43656;57.746;11.780;2023-09-30T09:39:53;101218.50;;;18.31;80.22
57827;BME280;43656;57.746;11.780;2023-09-30T09:42:31;101248.56;;;18.37;78.75
57827;BME280;43656;57.746;11.780;2023-09-30T09:45:02;101236.00;;;18.36;78.63
57827;BME280;43656;57.746;11.780;2023-09-30T09:47:29;101240.66;;;18.75;77.81
57827;BME280;43656;57.746;11.780;2023-09-30T09:49:57;101209.28;;;18.61;79.55
57827;BME280;43656;57.746;11.780;2023-09-30T09:52:23;101240.19;;;18.78;78.75
57827;BME280;43656;57.746;11.780;2023-09-30T09:54:50;101244.53;;;18.91;77.97
57827;BME280;43656;57.746;11.780;2023-09-30T09:57:19;101247.25;;;18.91;78.71
57827;BME280;43656;57.746;11.780;2023-09-30T09:59:46;101234.00;;;18.71;79.22
57827;BME280;43656;57.746;11.780;2023-09-30T10:02:16;101247.72;;;18.88;78.34
57827;BME280;43656;57.746;11.780;2023-09-30T10:04:44;101223.69;;;18.85;78.94
57827;BME280;43656;57.746;11.780;2023-09-30T10:07:22;101250.94;;;18.85;79.72
57827;BME280;43656;57.746;11.780;2023-09-30T10:09:52;101240.56;;;18.59;80.90
57827;BME280;43656;57.746;11.780;2023-09-30T10:12:19;101253.22;;;18.76;80.99
57827;BME280;43656;57.746;11.780;2023-09-30T10:14:46;101255.56;;;18.85;80.54
57827;BME280;43656;57.746;11.780;2023-09-30T10:17:12;101263.13;;;18.94;80.61
57827;BME280;43656;57.746;11.780;2023-09-30T10:20:04;101270.09;;;18.90;81.44
57827;BME280;43656;57.746;11.780;2023-09-30T10:22:33;101268.31;;;18.96;81.21
57827;BME280;43656;57.746;11.780;2023-09-30T10:24:59;101272.88;;;19.07;79.51
57827;BME280;43656;57.746;11.780;2023-09-30T10:37:50;101276.34;;;18.74;81.63
57827;BME280;43656;57.746;11.780;2023-09-30T10:40:29;101251.34;;;18.65;81.69
57827;BME280;43656;57.746;11.780;2023-09-30T10:42:56;101272.59;;;18.92;81.86
57827;BME280;43656;57.746;11.780;2023-09-30T10:48:40;101244.66;;;18.85;81.70
57827;BME280;43656;57.746;11.780;2023-09-30T10:51:14;101281.84;;;19.19;81.96
57827;BME280;43656;57.746;11.780;2023-09-30T10:53:44;101287.25;;;19.02;79.36
57827;BME280;43656;57.746;11.780;2023-09-30T10:56:10;101269.78;;;18.87;76.88
57827;BME280;43656;57.746;11.780;2023-09-30T10:58:46;101297.38;;;19.47;75.43
57827;BME280;43656;57.746;11.780;2023-09-30T11:01:13;101301.72;;;19.32;77.78
57827;BME280;43656;57.746;11.780;2023-09-30T11:03:40;101300.47;;;19.22;76.34
57827;BME280;43656;57.746;11.780;2023-09-30T11:06:06;101304.13;;;19.28;76.02
57827;BME280;43656;57.746;11.780;2023-09-30T11:08:33;101301.06;;;19.24;76.45
57827;BME280;43656;57.746;11.780;2023-09-30T11:10:59;101300.78;;;19.26;76.84
57827;BME280;43656;57.746;11.780;2023-09-30T11:13:33;101309.16;;;19.36;76.07
57827;BME280;43656;57.746;11.780;2023-09-30T11:16:01;101318.00;;;18.98;75.14
57827;BME280;43656;57.746;11.780;2023-09-30T11:18:27;101309.81;;;18.98;74.54
57827;BME280;43656;57.746;11.780;2023-09-30T11:21:12;101312.16;;;19.06;73.42
57827;BME280;43656;57.746;11.780;2023-09-30T11:23:39;101301.44;;;19.16;72.82
57827;BME280;43656;57.746;11.780;2023-09-30T11:26:05;101290.13;;;18.96;73.01
57827;BME280;43656;57.746;11.780;2023-09-30T11:28:36;101299.75;;;18.98;73.40
57827;BME280;43656;57.746;11.780;2023-09-30T11:31:02;101293.59;;;18.91;73.09
57827;BME280;43656;57.746;11.780;2023-09-30T11:33:29;101315.91;;;18.88;71.98
57827;BME280;43656;57.746;11.780;2023-09-30T11:36:00;101297.19;;;18.68;72.51
57827;BME280;43656;57.746;11.780;2023-09-30T11:38:27;101309.38;;;18.89;72.94
57827;BME280;43656;57.746;11.780;2023-09-30T11:43:32;101312.00;;;18.84;77.37
57827;BME280;43656;57.746;11.780;2023-09-30T11:46:08;101314.88;;;18.77;76.66
57827;BME280;43656;57.746;11.780;2023-09-30T11:48:35;101312.56;;;18.86;75.30
57827;BME280;43656;57.746;11.780;2023-09-30T11:51:01;101320.38;;;18.94;75.01
57827;BME280;43656;57.746;11.780;2023-09-30T11:53:29;101306.44;;;18.79;76.28
57827;BME280;43656;57.746;11.780;2023-09-30T11:55:59;101305.97;;;18.82;76.69
57827;BME280;43656;57.746;11.780;2023-09-30T11:58:28;101309.34;;;19.01;75.69
57827;BME280;43656;57.746;11.780;2023-09-30T12:00:54;101310.34;;;19.12;75.05
57827;BME280;43656;57.746;11.780;2023-09-30T12:03:20;101309.34;;;19.01;75.92
57827;BME280;43656;57.746;11.780;2023-09-30T12:05:47;101307.28;;;19.08;75.62
57827;BME280;43656;57.746;11.780;2023-09-30T12:08:13;101299.41;;;18.95;75.57
57827;BME280;43656;57.746;11.780;2023-09-30T12:10:39;101288.38;;;18.90;75.95
57827;BME280;43656;57.746;11.780;2023-09-30T12:13:05;101305.19;;;18.98;76.80
57827;BME280;43656;57.746;11.780;2023-09-30T12:15:30;101298.84;;;19.10;76.52
57827;BME280;43656;57.746;11.780;2023-09-30T12:17:56;101275.13;;;19.10;76.23
57827;BME280;43656;57.746;11.780;2023-09-30T12:20:21;101311.38;;;19.22;76.23
57827;BME280;43656;57.746;11.780;2023-09-30T12:22:48;101306.03;;;19.28;75.31
57827;BME280;43656;57.746;11.780;2023-09-30T12:25:14;101280.72;;;19.32;75.82
57827;BME280;43656;57.746;11.780;2023-09-30T12:27:40;101287.03;;;19.04;76.70
57827;BME280;43656;57.746;11.780;2023-09-30T12:30:06;101288.88;;;19.15;75.15
57827;BME280;43656;57.746;11.780;2023-09-30T12:32:32;101296.59;;;19.07;73.74
57827;BME280;43656;57.746;11.780;2023-09-30T12:34:57;101309.53;;;19.11;74.09
57827;BME280;43656;57.746;11.780;2023-09-30T12:37:23;101308.56;;;19.17;74.54
57827;BME280;43656;57.746;11.780;2023-09-30T12:39:48;101295.56;;;19.08;74.81
57827;BME280;43656;57.746;11.780;2023-09-30T12:42:14;101311.63;;;18.81;77.24
57827;BME280;43656;57.746;11.780;2023-09-30T12:44:41;101314.09;;;18.94;77.08
57827;BME280;43656;57.746;11.780;2023-09-30T12:47:06;101331.97;;;19.01;77.15
57827;BME280;43656;57.746;11.780;2023-09-30T12:49:31;101272.94;;;18.55;77.19
57827;BME280;43656;57.746;11.780;2023-09-30T12:51:57;101327.38;;;18.90;76.73